GLD965 SBSP-SBCT
Flight info
| Callsign | GLD965 |
|---|---|
| Flight time | 0h 37m |
| Altitude | 28000 |
| Route | SOVSI UZ85 RAXIT |
| Aircraft | B738/M-SDE2E3FGHIRWXY/LB1 |
Departure
| Time | 2026-05-06 18:53 |
|---|---|
| Airport | Congonhas–Deputado Freitas Nobre Airport (SBSP) |
Arrival
| Time | 2026-05-06 19:31 |
|---|---|
| Airport | Curitiba-Afonso Pena International Airport (SBCT) |
| Time | Latitude | Longitude | Altitude | Speed | Heading |
|---|---|---|---|---|---|
| 2026-05-06 18:40 | -23.62719 | -46.65817 | 2619 ft | 0 kts | 237° |
| 2026-05-06 18:48 | -23.62710 | -46.65801 | 2619 ft | 3 kts | 237° |
| 2026-05-06 18:48 | -23.62701 | -46.65785 | 2619 ft | 3 kts | 237° |
| 2026-05-06 18:49 | -23.62691 | -46.65769 | 2619 ft | 3 kts | 237° |
| 2026-05-06 18:49 | -23.62682 | -46.65753 | 2618 ft | 3 kts | 237° |
| 2026-05-06 18:49 | -23.62676 | -46.65743 | 2618 ft | 0 kts | 237° |
| 2026-05-06 18:49 | -23.62676 | -46.65746 | 2618 ft | 1 kts | 266° |
| 2026-05-06 18:50 | -23.62646 | -46.65768 | 2617 ft | 23 kts | 327° |
| 2026-05-06 18:50 | -23.62469 | -46.65891 | 2611 ft | 31 kts | 322° |
| 2026-05-06 18:50 | -23.62294 | -46.66021 | 2604 ft | 27 kts | 333° |
| 2026-05-06 18:50 | -23.62196 | -46.66071 | 2600 ft | 15 kts | 332° |
| 2026-05-06 18:51 | -23.62126 | -46.66122 | 2590 ft | 0 kts | 326° |
| 2026-05-06 18:52 | -23.62123 | -46.66124 | 2591 ft | 6 kts | 328° |
| 2026-05-06 18:52 | -23.62068 | -46.66142 | 2589 ft | 0 kts | 357° |
| 2026-05-06 18:52 | -23.62031 | -46.66119 | 2589 ft | 11 kts | 53° |
| 2026-05-06 18:52 | -23.62172 | -46.65977 | 2602 ft | 63 kts | 144° |
| 2026-05-06 18:53 | -23.62755 | -46.65592 | 2623 ft | 130 kts | 146° |
| 2026-05-06 18:53 | -23.63666 | -46.64942 | 2788 ft | 173 kts | 146° |
| 2026-05-06 18:53 | -23.64755 | -46.64308 | 3513 ft | 181 kts | 151° |
| 2026-05-06 18:53 | -23.65886 | -46.63568 | 4293 ft | 185 kts | 149° |
| 2026-05-06 18:54 | -23.67179 | -46.63209 | 4912 ft | 211 kts | 184° |
| 2026-05-06 18:54 | -23.68666 | -46.63615 | 5148 ft | 234 kts | 194° |
| 2026-05-06 18:54 | -23.70321 | -46.64073 | 5371 ft | 254 kts | 191° |
| 2026-05-06 18:54 | -23.72111 | -46.64464 | 5797 ft | 269 kts | 189° |
| 2026-05-06 18:55 | -23.73972 | -46.64834 | 6487 ft | 273 kts | 192° |
| 2026-05-06 18:55 | -23.75698 | -46.65685 | 7144 ft | 277 kts | 222° |
| 2026-05-06 18:55 | -23.76784 | -46.67396 | 7825 ft | 279 kts | 248° |
| 2026-05-06 18:55 | -23.77490 | -46.69382 | 8095 ft | 281 kts | 251° |
| 2026-05-06 18:56 | -23.78172 | -46.71396 | 8188 ft | 286 kts | 251° |
| 2026-05-06 18:56 | -23.78878 | -46.73424 | 8177 ft | 284 kts | 248° |
| 2026-05-06 18:56 | -23.79820 | -46.75308 | 8255 ft | 283 kts | 237° |
| 2026-05-06 18:56 | -23.80937 | -46.77091 | 8808 ft | 285 kts | 236° |
| 2026-05-06 18:57 | -23.82066 | -46.78860 | 9651 ft | 283 kts | 237° |
| 2026-05-06 18:57 | -23.83183 | -46.80643 | 10331 ft | 287 kts | 237° |
| 2026-05-06 18:57 | -23.84327 | -46.82502 | 10664 ft | 306 kts | 237° |
| 2026-05-06 18:57 | -23.85552 | -46.84511 | 10811 ft | 329 kts | 237° |
| 2026-05-06 18:58 | -23.86854 | -46.86651 | 10933 ft | 352 kts | 237° |
| 2026-05-06 18:58 | -23.88150 | -46.88995 | 11075 ft | 370 kts | 243° |
| 2026-05-06 18:58 | -23.89238 | -46.91589 | 11348 ft | 377 kts | 247° |
| 2026-05-06 18:58 | -23.90241 | -46.94262 | 11843 ft | 382 kts | 248° |
| 2026-05-06 18:59 | -23.91238 | -46.96973 | 12334 ft | 387 kts | 248° |
| 2026-05-06 18:59 | -23.92252 | -46.99700 | 12943 ft | 388 kts | 247° |
| 2026-05-06 18:59 | -23.93282 | -47.02426 | 13566 ft | 388 kts | 246° |
| 2026-05-06 18:59 | -23.94324 | -47.05144 | 14182 ft | 388 kts | 246° |
| 2026-05-06 19:00 | -23.95374 | -47.07869 | 14725 ft | 389 kts | 245° |
| 2026-05-06 19:00 | -23.96423 | -47.10586 | 15310 ft | 388 kts | 245° |
| 2026-05-06 19:00 | -23.97474 | -47.13299 | 15899 ft | 387 kts | 245° |
| 2026-05-06 19:00 | -23.98183 | -47.15130 | 16298 ft | 387 kts | 245° |
| 2026-05-06 19:01 | -23.99568 | -47.18714 | 17086 ft | 385 kts | 245° |
| 2026-05-06 19:01 | -24.00609 | -47.21410 | 17727 ft | 384 kts | 245° |
| 2026-05-06 19:01 | -24.01649 | -47.24100 | 18368 ft | 383 kts | 245° |
| 2026-05-06 19:01 | -24.02682 | -47.26778 | 18935 ft | 382 kts | 245° |
| 2026-05-06 19:02 | -24.03716 | -47.29459 | 19387 ft | 385 kts | 245° |
| 2026-05-06 19:02 | -24.04776 | -47.32203 | 19456 ft | 398 kts | 245° |
| 2026-05-06 19:02 | -24.05870 | -47.35043 | 19562 ft | 411 kts | 245° |
| 2026-05-06 19:02 | -24.06996 | -47.37967 | 19640 ft | 422 kts | 245° |
| 2026-05-06 19:03 | -24.08134 | -47.40926 | 19704 ft | 432 kts | 245° |
| 2026-05-06 19:03 | -24.09307 | -47.43975 | 19802 ft | 439 kts | 245° |
| 2026-05-06 19:03 | -24.10799 | -47.46903 | 19919 ft | 442 kts | 229° |
| 2026-05-06 19:03 | -24.13083 | -47.49141 | 20219 ft | 440 kts | 213° |
| 2026-05-06 19:04 | -24.15681 | -47.50923 | 20586 ft | 439 kts | 211° |
| 2026-05-06 19:04 | -24.18296 | -47.52678 | 20897 ft | 440 kts | 211° |
| 2026-05-06 19:04 | -24.20914 | -47.54448 | 21173 ft | 442 kts | 211° |
| 2026-05-06 19:04 | -24.23496 | -47.56217 | 21427 ft | 444 kts | 212° |
| 2026-05-06 19:05 | -24.26109 | -47.58024 | 21715 ft | 445 kts | 212° |
| 2026-05-06 19:05 | -24.28730 | -47.59848 | 22004 ft | 446 kts | 212° |
| 2026-05-06 19:05 | -24.31347 | -47.61673 | 22283 ft | 447 kts | 212° |
| 2026-05-06 19:05 | -24.33973 | -47.63505 | 22552 ft | 448 kts | 212° |
| 2026-05-06 19:06 | -24.36606 | -47.65341 | 22793 ft | 449 kts | 212° |
| 2026-05-06 19:06 | -24.39245 | -47.67181 | 23052 ft | 450 kts | 212° |
| 2026-05-06 19:06 | -24.41895 | -47.69030 | 23294 ft | 451 kts | 212° |
| 2026-05-06 19:06 | -24.44545 | -47.70881 | 23538 ft | 452 kts | 213° |
| 2026-05-06 19:07 | -24.47195 | -47.72739 | 23770 ft | 453 kts | 213° |
| 2026-05-06 19:07 | -24.48956 | -47.73976 | 23901 ft | 453 kts | 213° |
| 2026-05-06 19:07 | -24.52509 | -47.76473 | 24151 ft | 454 kts | 213° |
| 2026-05-06 19:07 | -24.55169 | -47.78342 | 24342 ft | 455 kts | 213° |
| 2026-05-06 19:08 | -24.57838 | -47.80218 | 24516 ft | 455 kts | 213° |
| 2026-05-06 19:08 | -24.60473 | -47.82071 | 24717 ft | 456 kts | 213° |
| 2026-05-06 19:08 | -24.63138 | -47.83947 | 25088 ft | 450 kts | 213° |
| 2026-05-06 19:08 | -24.65771 | -47.85800 | 25805 ft | 438 kts | 213° |
| 2026-05-06 19:09 | -24.68307 | -47.87586 | 26505 ft | 427 kts | 213° |
| 2026-05-06 19:09 | -24.70780 | -47.89329 | 27216 ft | 417 kts | 213° |
| 2026-05-06 19:09 | -24.73208 | -47.91040 | 27787 ft | 412 kts | 213° |
| 2026-05-06 19:09 | -24.75597 | -47.92725 | 27992 ft | 415 kts | 213° |
| 2026-05-06 19:10 | -24.78044 | -47.94453 | 27995 ft | 419 kts | 213° |
| 2026-05-06 19:10 | -24.80509 | -47.96194 | 27981 ft | 421 kts | 213° |
| 2026-05-06 19:10 | -24.82986 | -47.97944 | 27993 ft | 425 kts | 213° |
| 2026-05-06 19:10 | -24.85496 | -47.99717 | 27995 ft | 430 kts | 213° |
| 2026-05-06 19:11 | -24.88027 | -48.01507 | 27983 ft | 434 kts | 213° |
| 2026-05-06 19:11 | -24.90576 | -48.03310 | 27985 ft | 438 kts | 213° |
| 2026-05-06 19:11 | -24.93155 | -48.05134 | 27998 ft | 441 kts | 213° |
| 2026-05-06 19:11 | -24.95739 | -48.06964 | 27983 ft | 444 kts | 213° |
| 2026-05-06 19:12 | -24.98340 | -48.08807 | 27996 ft | 446 kts | 213° |
| 2026-05-06 19:12 | -25.00973 | -48.10674 | 27340 ft | 454 kts | 213° |
| 2026-05-06 19:12 | -25.03608 | -48.12543 | 26529 ft | 446 kts | 213° |
| 2026-05-06 19:12 | -25.06200 | -48.14382 | 25637 ft | 441 kts | 213° |
| 2026-05-06 19:13 | -25.08756 | -48.16197 | 24986 ft | 432 kts | 213° |
| 2026-05-06 19:13 | -25.11264 | -48.17978 | 24330 ft | 424 kts | 213° |
| 2026-05-06 19:13 | -25.13695 | -48.19705 | 23713 ft | 417 kts | 213° |
| 2026-05-06 19:13 | -25.16115 | -48.21427 | 23009 ft | 411 kts | 213° |
| 2026-05-06 19:14 | -25.18519 | -48.23138 | 22390 ft | 413 kts | 213° |
| 2026-05-06 19:14 | -25.20971 | -48.24883 | 21777 ft | 428 kts | 213° |
| 2026-05-06 19:14 | -25.23516 | -48.26696 | 21122 ft | 438 kts | 213° |
| 2026-05-06 19:14 | -25.26041 | -48.28501 | 20465 ft | 427 kts | 214° |
| 2026-05-06 19:15 | -25.28223 | -48.30651 | 19886 ft | 417 kts | 232° |
| 2026-05-06 19:15 | -25.29694 | -48.33344 | 19522 ft | 404 kts | 243° |
| 2026-05-06 19:15 | -25.30926 | -48.36162 | 19119 ft | 414 kts | 243° |
| 2026-05-06 19:15 | -25.32215 | -48.39074 | 18694 ft | 427 kts | 243° |
| 2026-05-06 19:16 | -25.33556 | -48.42019 | 18235 ft | 428 kts | 242° |
| 2026-05-06 19:16 | -25.34899 | -48.44937 | 17902 ft | 421 kts | 243° |
| 2026-05-06 19:16 | -25.36229 | -48.47827 | 17690 ft | 420 kts | 243° |
| 2026-05-06 19:16 | -25.37548 | -48.50697 | 17484 ft | 419 kts | 243° |
| 2026-05-06 19:17 | -25.38863 | -48.53563 | 17275 ft | 418 kts | 243° |
| 2026-05-06 19:17 | -25.40174 | -48.56423 | 17072 ft | 416 kts | 243° |
| 2026-05-06 19:17 | -25.41477 | -48.59267 | 16883 ft | 415 kts | 243° |
| 2026-05-06 19:17 | -25.42779 | -48.62109 | 16673 ft | 413 kts | 243° |
| 2026-05-06 19:18 | -25.44075 | -48.64941 | 16483 ft | 411 kts | 243° |
| 2026-05-06 19:18 | -25.45367 | -48.67772 | 16288 ft | 413 kts | 243° |
| 2026-05-06 19:18 | -25.46235 | -48.69676 | 16175 ft | 423 kts | 243° |
| 2026-05-06 19:18 | -25.47568 | -48.72599 | 16042 ft | 421 kts | 243° |
| 2026-05-06 19:19 | -25.49323 | -48.76447 | 15807 ft | 421 kts | 243° |
| 2026-05-06 19:19 | -25.50212 | -48.78397 | 15620 ft | 421 kts | 243° |
| 2026-05-06 19:19 | -25.51960 | -48.82234 | 15374 ft | 421 kts | 243° |
| 2026-05-06 19:19 | -25.53274 | -48.85119 | 15173 ft | 421 kts | 244° |
| 2026-05-06 19:20 | -25.54148 | -48.87041 | 15090 ft | 418 kts | 244° |
| 2026-05-06 19:20 | -25.55457 | -48.89920 | 14857 ft | 422 kts | 244° |
| 2026-05-06 19:20 | -25.56765 | -48.92799 | 14667 ft | 420 kts | 244° |
| 2026-05-06 19:20 | -25.58115 | -48.95653 | 14458 ft | 418 kts | 239° |
| 2026-05-06 19:21 | -25.60041 | -48.98073 | 14335 ft | 416 kts | 223° |
| 2026-05-06 19:21 | -25.62204 | -49.00234 | 14080 ft | 421 kts | 223° |
| 2026-05-06 19:21 | -25.64327 | -49.02434 | 13821 ft | 421 kts | 225° |
| 2026-05-06 19:21 | -25.66399 | -49.04652 | 13704 ft | 404 kts | 226° |
| 2026-05-06 19:22 | -25.68050 | -49.07071 | 13544 ft | 386 kts | 245° |
| 2026-05-06 19:22 | -25.68774 | -49.09855 | 13418 ft | 370 kts | 265° |
| 2026-05-06 19:22 | -25.68707 | -49.12680 | 12828 ft | 368 kts | 281° |
| 2026-05-06 19:22 | -25.68002 | -49.15395 | 12334 ft | 365 kts | 294° |
| 2026-05-06 19:23 | -25.66737 | -49.17810 | 11811 ft | 363 kts | 310° |
| 2026-05-06 19:23 | -25.65023 | -49.19858 | 11317 ft | 358 kts | 315° |
| 2026-05-06 19:23 | -25.63280 | -49.21769 | 10818 ft | 348 kts | 316° |
| 2026-05-06 19:23 | -25.61593 | -49.23625 | 10512 ft | 334 kts | 316° |
| 2026-05-06 19:24 | -25.60008 | -49.25392 | 10437 ft | 313 kts | 316° |
| 2026-05-06 19:24 | -25.58519 | -49.27052 | 10408 ft | 294 kts | 316° |
| 2026-05-06 19:24 | -25.57143 | -49.28586 | 10375 ft | 276 kts | 315° |
| 2026-05-06 19:24 | -25.55833 | -49.30046 | 10392 ft | 257 kts | 316° |
| 2026-05-06 19:25 | -25.54616 | -49.31401 | 10378 ft | 240 kts | 316° |
| 2026-05-06 19:25 | -25.53452 | -49.32695 | 10176 ft | 240 kts | 316° |
| 2026-05-06 19:25 | -25.52255 | -49.34024 | 9856 ft | 246 kts | 316° |
| 2026-05-06 19:25 | -25.51049 | -49.35366 | 9518 ft | 243 kts | 316° |
| 2026-05-06 19:26 | -25.49862 | -49.36685 | 9034 ft | 241 kts | 317° |
| 2026-05-06 19:26 | -25.48462 | -49.37622 | 8524 ft | 235 kts | 347° |
| 2026-05-06 19:26 | -25.46863 | -49.37596 | 8068 ft | 231 kts | 14° |
| 2026-05-06 19:26 | -25.45454 | -49.36776 | 7597 ft | 230 kts | 38° |
| 2026-05-06 19:27 | -25.44270 | -49.35572 | 7147 ft | 233 kts | 43° |
| 2026-05-06 19:27 | -25.43114 | -49.34298 | 6698 ft | 234 kts | 44° |
| 2026-05-06 19:27 | -25.42228 | -49.32796 | 6191 ft | 237 kts | 71° |
| 2026-05-06 19:27 | -25.42132 | -49.31033 | 5784 ft | 233 kts | 99° |
| 2026-05-06 19:28 | -25.42815 | -49.29428 | 5408 ft | 228 kts | 126° |
| 2026-05-06 19:28 | -25.43829 | -49.28134 | 5023 ft | 223 kts | 131° |
| 2026-05-06 19:28 | -25.44863 | -49.26897 | 4733 ft | 213 kts | 130° |
| 2026-05-06 19:28 | -25.45822 | -49.25748 | 4621 ft | 199 kts | 131° |
| 2026-05-06 19:29 | -25.46750 | -49.24643 | 4606 ft | 192 kts | 131° |
| 2026-05-06 19:29 | -25.47675 | -49.23569 | 4630 ft | 193 kts | 131° |
| 2026-05-06 19:29 | -25.48604 | -49.22492 | 4443 ft | 195 kts | 132° |
| 2026-05-06 19:29 | -25.49501 | -49.21450 | 4180 ft | 180 kts | 130° |
| 2026-05-06 19:30 | -25.50184 | -49.20656 | 3939 ft | 170 kts | 131° |
| 2026-05-06 19:30 | -25.50618 | -49.20154 | 3836 ft | 157 kts | 132° |
| 2026-05-06 19:30 | -25.51343 | -49.19267 | 3341 ft | 159 kts | 130° |
| 2026-05-06 19:30 | -25.52097 | -49.18421 | 3036 ft | 145 kts | 133° |
| 2026-05-06 19:31 | -25.52735 | -49.17704 | 2980 ft | 106 kts | 135° |
| 2026-05-06 19:31 | -25.53047 | -49.17362 | 2984 ft | 35 kts | 135° |
| 2026-05-06 19:31 | -25.53267 | -49.17331 | 2986 ft | 13 kts | 145° |
| 2026-05-06 19:32 | -25.53330 | -49.17265 | 2987 ft | 12 kts | 139° |
| 2026-05-06 19:32 | -25.53409 | -49.17275 | 2988 ft | 12 kts | 177° |
| 2026-05-06 19:32 | -25.53477 | -49.17226 | 2989 ft | 12 kts | 140° |
| 2026-05-06 19:32 | -25.53532 | -49.17162 | 2990 ft | 11 kts | 132° |
| 2026-05-06 19:33 | -25.53567 | -49.17140 | 2990 ft | 4 kts | 192° |
| 2026-05-06 19:33 | -25.53603 | -49.17179 | 2990 ft | 0 kts | 224° |